sensor_id;sensor_type;location;lat;lon;timestamp;P1;durP1;ratioP1;P2;durP2;ratioP2
18445;SDS011;9352;50.888;4.466;2022-11-20T00:00:07;46.80;;;20.87;;
18445;SDS011;9352;50.888;4.466;2022-11-20T00:02:35;42.00;;;19.83;;
18445;SDS011;9352;50.888;4.466;2022-11-20T00:05:01;40.63;;;19.30;;
18445;SDS011;9352;50.888;4.466;2022-11-20T00:07:29;43.53;;;18.97;;
18445;SDS011;9352;50.888;4.466;2022-11-20T00:09:56;41.10;;;18.63;;
18445;SDS011;9352;50.888;4.466;2022-11-20T00:12:23;56.30;;;21.33;;
18445;SDS011;9352;50.888;4.466;2022-11-20T00:14:51;44.20;;;20.67;;
18445;SDS011;9352;50.888;4.466;2022-11-20T00:17:18;44.50;;;20.97;;
18445;SDS011;9352;50.888;4.466;2022-11-20T00:19:44;52.00;;;20.53;;
18445;SDS011;9352;50.888;4.466;2022-11-20T00:22:11;56.10;;;21.27;;
18445;SDS011;9352;50.888;4.466;2022-11-20T00:24:38;47.17;;;20.67;;
18445;SDS011;9352;50.888;4.466;2022-11-20T00:27:05;46.80;;;20.43;;
18445;SDS011;9352;50.888;4.466;2022-11-20T00:29:32;53.50;;;21.43;;
18445;SDS011;9352;50.888;4.466;2022-11-20T00:32:00;45.00;;;21.27;;
18445;SDS011;9352;50.888;4.466;2022-11-20T00:34:27;53.57;;;20.77;;
18445;SDS011;9352;50.888;4.466;2022-11-20T00:36:53;54.23;;;21.77;;
18445;SDS011;9352;50.888;4.466;2022-11-20T00:39:20;52.50;;;20.87;;
18445;SDS011;9352;50.888;4.466;2022-11-20T00:41:47;52.27;;;21.87;;
18445;SDS011;9352;50.888;4.466;2022-11-20T00:44:15;46.43;;;20.33;;
18445;SDS011;9352;50.888;4.466;2022-11-20T00:46:42;49.33;;;21.20;;
18445;SDS011;9352;50.888;4.466;2022-11-20T00:49:10;48.83;;;21.80;;
18445;SDS011;9352;50.888;4.466;2022-11-20T00:51:37;53.03;;;21.83;;
18445;SDS011;9352;50.888;4.466;2022-11-20T00:54:03;54.93;;;21.63;;
18445;SDS011;9352;50.888;4.466;2022-11-20T00:56:30;51.70;;;22.07;;
18445;SDS011;9352;50.888;4.466;2022-11-20T00:58:58;53.67;;;23.13;;
18445;SDS011;9352;50.888;4.466;2022-11-20T01:01:26;50.30;;;23.03;;
18445;SDS011;9352;50.888;4.466;2022-11-20T01:03:54;46.33;;;22.20;;
18445;SDS011;9352;50.888;4.466;2022-11-20T01:06:25;51.03;;;22.17;;
18445;SDS011;9352;50.888;4.466;2022-11-20T01:08:54;59.53;;;22.67;;
18445;SDS011;9352;50.888;4.466;2022-11-20T01:11:23;51.70;;;22.07;;
18445;SDS011;9352;50.888;4.466;2022-11-20T01:13:51;51.67;;;22.60;;
18445;SDS011;9352;50.888;4.466;2022-11-20T01:16:20;48.87;;;21.77;;
18445;SDS011;9352;50.888;4.466;2022-11-20T01:18:50;53.37;;;21.53;;
18445;SDS011;9352;50.888;4.466;2022-11-20T01:21:19;52.20;;;22.63;;
18445;SDS011;9352;50.888;4.466;2022-11-20T01:23:49;57.63;;;22.33;;
18445;SDS011;9352;50.888;4.466;2022-11-20T01:26:18;52.30;;;23.00;;
18445;SDS011;9352;50.888;4.466;2022-11-20T01:28:47;50.47;;;23.10;;
18445;SDS011;9352;50.888;4.466;2022-11-20T01:31:16;56.57;;;22.77;;
18445;SDS011;9352;50.888;4.466;2022-11-20T01:33:45;54.73;;;22.90;;
18445;SDS011;9352;50.888;4.466;2022-11-20T01:36:14;54.40;;;23.73;;
18445;SDS011;9352;50.888;4.466;2022-11-20T01:38:42;62.43;;;23.40;;
18445;SDS011;9352;50.888;4.466;2022-11-20T01:41:11;60.60;;;25.57;;
18445;SDS011;9352;50.888;4.466;2022-11-20T01:44:01;65.67;;;24.10;;
18445;SDS011;9352;50.888;4.466;2022-11-20T01:46:27;63.07;;;25.20;;
18445;SDS011;9352;50.888;4.466;2022-11-20T01:48:56;56.87;;;24.73;;
18445;SDS011;9352;50.888;4.466;2022-11-20T01:51:28;63.80;;;25.37;;
18445;SDS011;9352;50.888;4.466;2022-11-20T01:53:57;63.50;;;25.83;;
18445;SDS011;9352;50.888;4.466;2022-11-20T01:56:28;81.10;;;27.40;;
18445;SDS011;9352;50.888;4.466;2022-11-20T01:58:58;70.53;;;27.20;;
18445;SDS011;9352;50.888;4.466;2022-11-20T02:01:27;65.40;;;25.90;;
18445;SDS011;9352;50.888;4.466;2022-11-20T02:03:54;69.77;;;25.90;;
18445;SDS011;9352;50.888;4.466;2022-11-20T02:06:23;69.87;;;26.37;;
18445;SDS011;9352;50.888;4.466;2022-11-20T02:08:51;69.70;;;26.67;;
18445;SDS011;9352;50.888;4.466;2022-11-20T02:11:19;69.53;;;27.40;;
18445;SDS011;9352;50.888;4.466;2022-11-20T02:13:47;65.80;;;27.17;;
18445;SDS011;9352;50.888;4.466;2022-11-20T02:16:16;71.40;;;27.10;;
18445;SDS011;9352;50.888;4.466;2022-11-20T02:18:45;69.37;;;26.80;;
18445;SDS011;9352;50.888;4.466;2022-11-20T02:21:21;76.83;;;28.63;;
18445;SDS011;9352;50.888;4.466;2022-11-20T02:26:45;77.60;;;27.30;;
18445;SDS011;9352;50.888;4.466;2022-11-20T02:29:15;79.40;;;27.37;;
18445;SDS011;9352;50.888;4.466;2022-11-20T02:31:45;68.93;;;27.37;;
18445;SDS011;9352;50.888;4.466;2022-11-20T02:34:12;76.40;;;28.77;;
18445;SDS011;9352;50.888;4.466;2022-11-20T02:36:39;74.97;;;28.50;;
18445;SDS011;9352;50.888;4.466;2022-11-20T02:39:08;87.10;;;30.87;;
18445;SDS011;9352;50.888;4.466;2022-11-20T02:41:39;79.30;;;31.20;;
18445;SDS011;9352;50.888;4.466;2022-11-20T02:44:05;90.87;;;31.13;;
18445;SDS011;9352;50.888;4.466;2022-11-20T02:46:32;92.77;;;31.13;;
18445;SDS011;9352;50.888;4.466;2022-11-20T02:49:00;84.63;;;30.90;;
18445;SDS011;9352;50.888;4.466;2022-11-20T02:51:28;90.60;;;33.07;;
18445;SDS011;9352;50.888;4.466;2022-11-20T02:53:55;91.33;;;33.67;;
18445;SDS011;9352;50.888;4.466;2022-11-20T02:56:22;99.10;;;32.17;;
18445;SDS011;9352;50.888;4.466;2022-11-20T02:58:51;97.37;;;33.27;;
18445;SDS011;9352;50.888;4.466;2022-11-20T03:01:18;104.73;;;33.90;;
18445;SDS011;9352;50.888;4.466;2022-11-20T03:03:45;104.73;;;33.83;;
18445;SDS011;9352;50.888;4.466;2022-11-20T03:06:13;99.63;;;33.63;;
18445;SDS011;9352;50.888;4.466;2022-11-20T03:08:40;102.00;;;33.60;;
18445;SDS011;9352;50.888;4.466;2022-11-20T03:11:07;99.97;;;32.80;;
18445;SDS011;9352;50.888;4.466;2022-11-20T03:13:35;108.07;;;34.30;;
18445;SDS011;9352;50.888;4.466;2022-11-20T03:16:10;107.23;;;33.80;;
18445;SDS011;9352;50.888;4.466;2022-11-20T03:18:38;94.83;;;32.70;;
18445;SDS011;9352;50.888;4.466;2022-11-20T03:21:06;80.37;;;27.73;;
18445;SDS011;9352;50.888;4.466;2022-11-20T03:23:33;89.50;;;28.77;;
18445;SDS011;9352;50.888;4.466;2022-11-20T03:26:08;77.73;;;27.73;;
18445;SDS011;9352;50.888;4.466;2022-11-20T03:28:36;71.83;;;26.37;;
18445;SDS011;9352;50.888;4.466;2022-11-20T03:31:07;61.70;;;25.03;;
18445;SDS011;9352;50.888;4.466;2022-11-20T03:33:37;65.57;;;25.00;;
18445;SDS011;9352;50.888;4.466;2022-11-20T03:36:04;73.37;;;25.53;;
18445;SDS011;9352;50.888;4.466;2022-11-20T03:38:33;66.87;;;25.17;;
18445;SDS011;9352;50.888;4.466;2022-11-20T03:41:00;57.33;;;22.27;;
18445;SDS011;9352;50.888;4.466;2022-11-20T03:43:29;55.13;;;22.00;;
18445;SDS011;9352;50.888;4.466;2022-11-20T03:45:55;53.70;;;21.27;;
18445;SDS011;9352;50.888;4.466;2022-11-20T03:48:24;53.27;;;20.93;;
18445;SDS011;9352;50.888;4.466;2022-11-20T03:50:51;51.97;;;20.47;;
18445;SDS011;9352;50.888;4.466;2022-11-20T03:53:19;50.03;;;21.57;;
18445;SDS011;9352;50.888;4.466;2022-11-20T03:55:49;52.13;;;20.90;;
18445;SDS011;9352;50.888;4.466;2022-11-20T03:58:17;43.07;;;18.50;;
18445;SDS011;9352;50.888;4.466;2022-11-20T04:00:44;53.50;;;19.73;;
18445;SDS011;9352;50.888;4.466;2022-11-20T04:03:10;47.87;;;18.77;;
18445;SDS011;9352;50.888;4.466;2022-11-20T04:05:39;44.93;;;18.73;;
18445;SDS011;9352;50.888;4.466;2022-11-20T04:08:05;49.83;;;20.07;;
18445;SDS011;9352;50.888;4.466;2022-11-20T04:10:32;46.03;;;19.77;;
18445;SDS011;9352;50.888;4.466;2022-11-20T04:12:59;51.63;;;19.33;;
18445;SDS011;9352;50.888;4.466;2022-11-20T04:15:26;52.17;;;20.03;;
18445;SDS011;9352;50.888;4.466;2022-11-20T04:17:53;55.07;;;20.73;;
18445;SDS011;9352;50.888;4.466;2022-11-20T04:20:20;55.93;;;20.57;;
18445;SDS011;9352;50.888;4.466;2022-11-20T04:22:48;55.20;;;21.37;;
18445;SDS011;9352;50.888;4.466;2022-11-20T04:25:15;59.37;;;20.80;;
18445;SDS011;9352;50.888;4.466;2022-11-20T04:27:42;56.23;;;20.37;;
18445;SDS011;9352;50.888;4.466;2022-11-20T04:30:09;60.33;;;22.27;;
18445;SDS011;9352;50.888;4.466;2022-11-20T04:32:37;51.43;;;20.03;;
18445;SDS011;9352;50.888;4.466;2022-11-20T04:35:04;53.17;;;20.77;;
18445;SDS011;9352;50.888;4.466;2022-11-20T04:37:31;57.07;;;20.97;;
18445;SDS011;9352;50.888;4.466;2022-11-20T04:40:00;58.10;;;21.23;;
18445;SDS011;9352;50.888;4.466;2022-11-20T04:42:26;60.13;;;21.87;;
18445;SDS011;9352;50.888;4.466;2022-11-20T04:44:56;62.53;;;22.97;;
18445;SDS011;9352;50.888;4.466;2022-11-20T04:47:23;62.37;;;22.00;;
18445;SDS011;9352;50.888;4.466;2022-11-20T04:49:50;55.37;;;20.73;;
18445;SDS011;9352;50.888;4.466;2022-11-20T04:52:17;54.93;;;21.40;;
18445;SDS011;9352;50.888;4.466;2022-11-20T04:54:44;63.70;;;21.23;;
18445;SDS011;9352;50.888;4.466;2022-11-20T04:57:13;59.80;;;20.90;;
18445;SDS011;9352;50.888;4.466;2022-11-20T04:59:41;66.07;;;21.90;;
18445;SDS011;9352;50.888;4.466;2022-11-20T05:02:08;61.73;;;22.03;;
18445;SDS011;9352;50.888;4.466;2022-11-20T05:04:35;58.33;;;21.97;;
18445;SDS011;9352;50.888;4.466;2022-11-20T05:07:02;59.63;;;22.27;;
18445;SDS011;9352;50.888;4.466;2022-11-20T05:09:29;59.30;;;21.07;;
18445;SDS011;9352;50.888;4.466;2022-11-20T05:11:57;62.97;;;22.17;;
18445;SDS011;9352;50.888;4.466;2022-11-20T05:14:25;60.97;;;22.07;;
18445;SDS011;9352;50.888;4.466;2022-11-20T05:16:52;62.53;;;22.00;;
18445;SDS011;9352;50.888;4.466;2022-11-20T05:19:18;57.50;;;21.47;;
18445;SDS011;9352;50.888;4.466;2022-11-20T05:21:45;64.80;;;22.03;;
18445;SDS011;9352;50.888;4.466;2022-11-20T05:24:12;58.93;;;21.63;;
18445;SDS011;9352;50.888;4.466;2022-11-20T05:26:39;57.77;;;20.87;;
18445;SDS011;9352;50.888;4.466;2022-11-20T05:29:06;61.27;;;21.93;;
18445;SDS011;9352;50.888;4.466;2022-11-20T05:31:34;59.17;;;21.17;;
18445;SDS011;9352;50.888;4.466;2022-11-20T05:34:02;62.27;;;21.87;;
18445;SDS011;9352;50.888;4.466;2022-11-20T05:36:29;66.63;;;22.63;;
18445;SDS011;9352;50.888;4.466;2022-11-20T05:38:56;60.97;;;21.57;;
18445;SDS011;9352;50.888;4.466;2022-11-20T05:41:23;63.10;;;22.53;;
18445;SDS011;9352;50.888;4.466;2022-11-20T05:43:50;72.77;;;23.40;;
18445;SDS011;9352;50.888;4.466;2022-11-20T05:46:18;68.77;;;23.43;;
18445;SDS011;9352;50.888;4.466;2022-11-20T05:48:47;67.03;;;22.90;;
18445;SDS011;9352;50.888;4.466;2022-11-20T05:51:15;61.97;;;22.37;;
18445;SDS011;9352;50.888;4.466;2022-11-20T05:53:44;64.10;;;21.97;;
18445;SDS011;9352;50.888;4.466;2022-11-20T05:56:11;68.13;;;22.70;;
18445;SDS011;9352;50.888;4.466;2022-11-20T05:58:40;66.03;;;23.93;;
18445;SDS011;9352;50.888;4.466;2022-11-20T06:01:08;66.37;;;23.90;;
18445;SDS011;9352;50.888;4.466;2022-11-20T06:03:37;70.47;;;23.60;;
18445;SDS011;9352;50.888;4.466;2022-11-20T06:06:06;69.80;;;23.53;;
18445;SDS011;9352;50.888;4.466;2022-11-20T06:08:32;70.40;;;23.67;;
18445;SDS011;9352;50.888;4.466;2022-11-20T06:11:03;65.40;;;23.67;;
18445;SDS011;9352;50.888;4.466;2022-11-20T06:13:30;69.37;;;23.33;;
18445;SDS011;9352;50.888;4.466;2022-11-20T06:15:57;88.17;;;24.87;;
18445;SDS011;9352;50.888;4.466;2022-11-20T06:18:25;84.07;;;24.53;;
18445;SDS011;9352;50.888;4.466;2022-11-20T06:20:58;83.13;;;25.87;;
18445;SDS011;9352;50.888;4.466;2022-11-20T06:23:28;91.53;;;27.23;;
18445;SDS011;9352;50.888;4.466;2022-11-20T06:25:55;95.23;;;25.77;;
18445;SDS011;9352;50.888;4.466;2022-11-20T06:28:22;98.03;;;26.53;;
18445;SDS011;9352;50.888;4.466;2022-11-20T06:30:49;104.87;;;26.00;;
18445;SDS011;9352;50.888;4.466;2022-11-20T06:33:16;104.97;;;28.43;;
18445;SDS011;9352;50.888;4.466;2022-11-20T06:35:43;110.80;;;28.07;;
18445;SDS011;9352;50.888;4.466;2022-11-20T06:38:09;117.63;;;27.13;;
18445;SDS011;9352;50.888;4.466;2022-11-20T06:40:40;109.93;;;28.50;;
18445;SDS011;9352;50.888;4.466;2022-11-20T06:43:07;118.53;;;28.57;;
18445;SDS011;9352;50.888;4.466;2022-11-20T06:45:34;114.10;;;26.30;;
18445;SDS011;9352;50.888;4.466;2022-11-20T06:48:01;120.70;;;27.63;;
18445;SDS011;9352;50.888;4.466;2022-11-20T06:50:28;114.23;;;27.73;;
18445;SDS011;9352;50.888;4.466;2022-11-20T06:52:55;120.00;;;26.57;;
18445;SDS011;9352;50.888;4.466;2022-11-20T06:55:22;120.27;;;27.57;;
18445;SDS011;9352;50.888;4.466;2022-11-20T06:57:51;124.80;;;28.40;;
18445;SDS011;9352;50.888;4.466;2022-11-20T07:00:18;129.50;;;27.60;;
18445;SDS011;9352;50.888;4.466;2022-11-20T07:02:45;125.87;;;27.10;;
18445;SDS011;9352;50.888;4.466;2022-11-20T07:05:11;121.00;;;27.77;;
18445;SDS011;9352;50.888;4.466;2022-11-20T07:07:38;139.97;;;28.87;;
18445;SDS011;9352;50.888;4.466;2022-11-20T07:10:05;124.53;;;27.07;;
18445;SDS011;9352;50.888;4.466;2022-11-20T07:12:33;117.67;;;27.13;;
18445;SDS011;9352;50.888;4.466;2022-11-20T07:15:01;132.93;;;29.27;;
18445;SDS011;9352;50.888;4.466;2022-11-20T07:17:29;140.17;;;28.27;;
18445;SDS011;9352;50.888;4.466;2022-11-20T07:19:56;134.57;;;28.57;;
18445;SDS011;9352;50.888;4.466;2022-11-20T07:22:23;138.70;;;29.87;;
18445;SDS011;9352;50.888;4.466;2022-11-20T07:24:49;148.23;;;29.70;;
18445;SDS011;9352;50.888;4.466;2022-11-20T07:27:16;132.73;;;28.80;;
18445;SDS011;9352;50.888;4.466;2022-11-20T07:29:43;128.93;;;28.87;;
18445;SDS011;9352;50.888;4.466;2022-11-20T07:32:11;133.30;;;31.37;;
18445;SDS011;9352;50.888;4.466;2022-11-20T07:34:38;134.87;;;30.50;;
18445;SDS011;9352;50.888;4.466;2022-11-20T07:37:05;133.30;;;30.50;;
18445;SDS011;9352;50.888;4.466;2022-11-20T07:39:32;123.17;;;29.67;;
18445;SDS011;9352;50.888;4.466;2022-11-20T07:41:58;127.50;;;29.67;;
18445;SDS011;9352;50.888;4.466;2022-11-20T07:44:25;122.60;;;28.37;;
18445;SDS011;9352;50.888;4.466;2022-11-20T07:46:52;135.97;;;29.67;;
18445;SDS011;9352;50.888;4.466;2022-11-20T07:49:20;123.60;;;30.70;;
18445;SDS011;9352;50.888;4.466;2022-11-20T07:51:49;122.17;;;31.07;;
18445;SDS011;9352;50.888;4.466;2022-11-20T07:54:16;126.70;;;33.13;;
18445;SDS011;9352;50.888;4.466;2022-11-20T07:56:43;123.80;;;32.13;;
18445;SDS011;9352;50.888;4.466;2022-11-20T07:59:10;123.97;;;32.30;;
18445;SDS011;9352;50.888;4.466;2022-11-20T08:01:37;119.23;;;29.33;;
18445;SDS011;9352;50.888;4.466;2022-11-20T08:04:04;118.50;;;30.87;;
18445;SDS011;9352;50.888;4.466;2022-11-20T08:06:33;124.63;;;30.83;;
18445;SDS011;9352;50.888;4.466;2022-11-20T08:08:59;124.00;;;33.47;;
18445;SDS011;9352;50.888;4.466;2022-11-20T08:11:26;127.83;;;34.30;;
18445;SDS011;9352;50.888;4.466;2022-11-20T08:14:11;140.30;;;40.23;;
18445;SDS011;9352;50.888;4.466;2022-11-20T08:16:37;132.57;;;35.08;;
18445;SDS011;9352;50.888;4.466;2022-11-20T08:19:04;120.93;;;29.23;;
18445;SDS011;9352;50.888;4.466;2022-11-20T08:21:33;123.47;;;29.27;;
18445;SDS011;9352;50.888;4.466;2022-11-20T08:24:00;129.33;;;30.37;;
18445;SDS011;9352;50.888;4.466;2022-11-20T08:26:27;117.27;;;28.87;;
18445;SDS011;9352;50.888;4.466;2022-11-20T08:28:54;114.27;;;29.40;;
18445;SDS011;9352;50.888;4.466;2022-11-20T08:31:21;112.53;;;29.93;;
18445;SDS011;9352;50.888;4.466;2022-11-20T08:33:49;122.97;;;30.20;;
18445;SDS011;9352;50.888;4.466;2022-11-20T08:36:16;116.53;;;29.40;;
18445;SDS011;9352;50.888;4.466;2022-11-20T08:38:47;105.43;;;28.83;;
18445;SDS011;9352;50.888;4.466;2022-11-20T08:41:15;113.57;;;28.47;;
18445;SDS011;9352;50.888;4.466;2022-11-20T08:43:53;124.57;;;29.87;;
18445;SDS011;9352;50.888;4.466;2022-11-20T08:46:22;108.03;;;27.80;;
18445;SDS011;9352;50.888;4.466;2022-11-20T08:48:50;112.40;;;27.58;;
18445;SDS011;9352;50.888;4.466;2022-11-20T08:51:17;156.85;;;37.70;;
18445;SDS011;9352;50.888;4.466;2022-11-20T08:53:45;124.60;;;33.23;;
18445;SDS011;9352;50.888;4.466;2022-11-20T08:56:14;155.87;;;41.03;;
18445;SDS011;9352;50.888;4.466;2022-11-20T08:58:42;141.00;;;37.33;;
18445;SDS011;9352;50.888;4.466;2022-11-20T09:01:09;125.35;;;33.90;;
18445;SDS011;9352;50.888;4.466;2022-11-20T09:03:36;141.27;;;37.30;;
18445;SDS011;9352;50.888;4.466;2022-11-20T09:06:03;129.43;;;34.63;;
18445;SDS011;9352;50.888;4.466;2022-11-20T09:08:31;112.95;;;31.70;;
18445;SDS011;9352;50.888;4.466;2022-11-20T09:10:59;121.65;;;33.90;;
18445;SDS011;9352;50.888;4.466;2022-11-20T09:13:27;114.32;;;28.75;;
18445;SDS011;9352;50.888;4.466;2022-11-20T09:15:55;111.78;;;26.98;;
18445;SDS011;9352;50.888;4.466;2022-11-20T09:18:23;94.43;;;25.40;;
18445;SDS011;9352;50.888;4.466;2022-11-20T09:20:50;101.45;;;26.35;;
18445;SDS011;9352;50.888;4.466;2022-11-20T09:23:17;89.30;;;24.65;;
18445;SDS011;9352;50.888;4.466;2022-11-20T09:25:44;91.28;;;24.45;;
18445;SDS011;9352;50.888;4.466;2022-11-20T09:28:10;78.85;;;23.55;;
18445;SDS011;9352;50.888;4.466;2022-11-20T09:30:39;91.57;;;26.20;;
18445;SDS011;9352;50.888;4.466;2022-11-20T09:33:06;97.97;;;25.95;;
18445;SDS011;9352;50.888;4.466;2022-11-20T09:35:33;95.28;;;26.05;;
18445;SDS011;9352;50.888;4.466;2022-11-20T09:38:04;86.25;;;24.98;;
18445;SDS011;9352;50.888;4.466;2022-11-20T09:40:31;86.25;;;25.48;;
18445;SDS011;9352;50.888;4.466;2022-11-20T09:43:01;88.82;;;26.52;;
18445;SDS011;9352;50.888;4.466;2022-11-20T09:45:37;82.10;;;25.15;;
18445;SDS011;9352;50.888;4.466;2022-11-20T09:48:16;79.15;;;25.02;;
18445;SDS011;9352;50.888;4.466;2022-11-20T09:50:53;80.00;;;25.77;;
18445;SDS011;9352;50.888;4.466;2022-11-20T09:53:27;69.93;;;22.95;;
18445;SDS011;9352;50.888;4.466;2022-11-20T09:56:00;68.97;;;21.80;;
18445;SDS011;9352;50.888;4.466;2022-11-20T09:58:31;64.60;;;20.95;;
18445;SDS011;9352;50.888;4.466;2022-11-20T10:01:03;68.85;;;21.77;;
18445;SDS011;9352;50.888;4.466;2022-11-20T10:03:37;61.55;;;20.92;;
18445;SDS011;9352;50.888;4.466;2022-11-20T10:06:12;62.97;;;20.67;;
18445;SDS011;9352;50.888;4.466;2022-11-20T10:08:44;58.35;;;19.35;;
18445;SDS011;9352;50.888;4.466;2022-11-20T10:11:14;56.20;;;18.35;;
18445;SDS011;9352;50.888;4.466;2022-11-20T10:13:50;55.00;;;18.58;;
18445;SDS011;9352;50.888;4.466;2022-11-20T10:16:29;50.97;;;18.33;;
18445;SDS011;9352;50.888;4.466;2022-11-20T10:19:05;52.03;;;18.80;;
18445;SDS011;9352;50.888;4.466;2022-11-20T10:21:53;46.13;;;16.77;;
18445;SDS011;9352;50.888;4.466;2022-11-20T10:24:32;46.55;;;17.13;;
18445;SDS011;9352;50.888;4.466;2022-11-20T10:27:15;46.00;;;16.67;;
18445;SDS011;9352;50.888;4.466;2022-11-20T10:29:59;47.58;;;16.92;;
18445;SDS011;9352;50.888;4.466;2022-11-20T10:32:31;38.95;;;15.68;;
18445;SDS011;9352;50.888;4.466;2022-11-20T10:35:04;39.45;;;16.02;;
18445;SDS011;9352;50.888;4.466;2022-11-20T10:37:34;37.80;;;14.40;;
18445;SDS011;9352;50.888;4.466;2022-11-20T10:40:04;33.47;;;14.27;;
18445;SDS011;9352;50.888;4.466;2022-11-20T10:42:44;33.30;;;12.88;;
18445;SDS011;9352;50.888;4.466;2022-11-20T10:45:13;41.17;;;16.17;;
18445;SDS011;9352;50.888;4.466;2022-11-20T10:48:07;41.00;;;15.63;;
18445;SDS011;9352;50.888;4.466;2022-11-20T10:50:40;33.45;;;13.60;;
18445;SDS011;9352;50.888;4.466;2022-11-20T10:53:32;18.85;;;9.80;;
18445;SDS011;9352;50.888;4.466;2022-11-20T10:56:12;26.05;;;10.02;;
18445;SDS011;9352;50.888;4.466;2022-11-20T10:58:45;28.48;;;9.15;;
18445;SDS011;9352;50.888;4.466;2022-11-20T11:01:21;25.73;;;9.70;;
18445;SDS011;9352;50.888;4.466;2022-11-20T11:03:49;19.02;;;8.32;;
18445;SDS011;9352;50.888;4.466;2022-11-20T11:06:20;20.15;;;7.97;;
18445;SDS011;9352;50.888;4.466;2022-11-20T11:08:51;14.80;;;7.15;;
18445;SDS011;9352;50.888;4.466;2022-11-20T11:11:22;16.33;;;6.50;;
18445;SDS011;9352;50.888;4.466;2022-11-20T11:13:51;14.70;;;6.35;;
18445;SDS011;9352;50.888;4.466;2022-11-20T11:16:22;13.60;;;5.90;;
18445;SDS011;9352;50.888;4.466;2022-11-20T11:19:02;10.98;;;5.10;;
18445;SDS011;9352;50.888;4.466;2022-11-20T11:21:30;11.60;;;5.00;;
18445;SDS011;9352;50.888;4.466;2022-11-20T11:23:58;9.35;;;4.38;;
18445;SDS011;9352;50.888;4.466;2022-11-20T11:26:26;12.95;;;4.43;;
18445;SDS011;9352;50.888;4.466;2022-11-20T11:28:54;12.25;;;4.60;;
18445;SDS011;9352;50.888;4.466;2022-11-20T11:31:23;10.45;;;3.80;;
18445;SDS011;9352;50.888;4.466;2022-11-20T11:34:02;7.88;;;3.60;;
18445;SDS011;9352;50.888;4.466;2022-11-20T11:36:30;10.32;;;4.38;;
18445;SDS011;9352;50.888;4.466;2022-11-20T11:39:00;7.60;;;3.20;;
18445;SDS011;9352;50.888;4.466;2022-11-20T11:41:30;6.97;;;3.30;;
18445;SDS011;9352;50.888;4.466;2022-11-20T11:44:00;6.63;;;3.40;;
18445;SDS011;9352;50.888;4.466;2022-11-20T11:46:58;9.30;;;3.75;;
18445;SDS011;9352;50.888;4.466;2022-11-20T11:49:26;5.50;;;3.30;;
18445;SDS011;9352;50.888;4.466;2022-11-20T11:51:58;10.57;;;3.90;;
18445;SDS011;9352;50.888;4.466;2022-11-20T11:54:36;9.65;;;3.78;;
18445;SDS011;9352;50.888;4.466;2022-11-20T11:57:10;8.35;;;3.05;;
18445;SDS011;9352;50.888;4.466;2022-11-20T11:59:45;11.00;;;3.80;;
18445;SDS011;9352;50.888;4.466;2022-11-20T12:02:24;14.52;;;4.15;;
18445;SDS011;9352;50.888;4.466;2022-11-20T12:05:02;9.73;;;3.25;;
18445;SDS011;9352;50.888;4.466;2022-11-20T12:07:38;4.13;;;2.92;;
18445;SDS011;9352;50.888;4.466;2022-11-20T12:10:12;6.90;;;2.97;;
18445;SDS011;9352;50.888;4.466;2022-11-20T12:12:44;7.43;;;2.72;;
18445;SDS011;9352;50.888;4.466;2022-11-20T12:15:16;10.63;;;2.85;;
18445;SDS011;9352;50.888;4.466;2022-11-20T12:17:57;7.68;;;2.97;;
18445;SDS011;9352;50.888;4.466;2022-11-20T12:20:27;10.90;;;2.70;;
18445;SDS011;9352;50.888;4.466;2022-11-20T12:22:59;5.68;;;2.70;;
18445;SDS011;9352;50.888;4.466;2022-11-20T12:25:32;11.00;;;2.88;;
18445;SDS011;9352;50.888;4.466;2022-11-20T12:28:06;10.63;;;3.28;;
18445;SDS011;9352;50.888;4.466;2022-11-20T12:30:48;8.05;;;3.10;;
18445;SDS011;9352;50.888;4.466;2022-11-20T12:33:33;6.00;;;2.88;;
18445;SDS011;9352;50.888;4.466;2022-11-20T12:36:16;10.00;;;3.13;;
18445;SDS011;9352;50.888;4.466;2022-11-20T12:38:54;6.97;;;3.47;;
18445;SDS011;9352;50.888;4.466;2022-11-20T12:41:36;7.80;;;3.63;;
18445;SDS011;9352;50.888;4.466;2022-11-20T12:44:39;13.82;;;3.40;;
18445;SDS011;9352;50.888;4.466;2022-11-20T12:47:40;5.03;;;3.22;;
18445;SDS011;9352;50.888;4.466;2022-11-20T12:50:23;8.13;;;3.42;;
18445;SDS011;9352;50.888;4.466;2022-11-20T12:53:01;8.00;;;4.50;;
18445;SDS011;9352;50.888;4.466;2022-11-20T12:55:36;42.38;;;13.50;;
18445;SDS011;9352;50.888;4.466;2022-11-20T12:58:15;28.77;;;10.15;;
18445;SDS011;9352;50.888;4.466;2022-11-20T13:00:51;24.48;;;9.65;;
18445;SDS011;9352;50.888;4.466;2022-11-20T13:03:34;23.25;;;6.57;;
18445;SDS011;9352;50.888;4.466;2022-11-20T13:06:11;20.65;;;8.60;;
18445;SDS011;9352;50.888;4.466;2022-11-20T13:08:43;15.55;;;5.10;;
18445;SDS011;9352;50.888;4.466;2022-11-20T13:11:17;18.02;;;6.38;;
18445;SDS011;9352;50.888;4.466;2022-11-20T13:13:53;14.63;;;5.47;;
18445;SDS011;9352;50.888;4.466;2022-11-20T13:16:34;23.63;;;8.45;;
18445;SDS011;9352;50.888;4.466;2022-11-20T13:19:04;46.60;;;18.75;;
18445;SDS011;9352;50.888;4.466;2022-11-20T13:21:36;20.90;;;10.05;;
18445;SDS011;9352;50.888;4.466;2022-11-20T13:24:06;15.15;;;5.90;;
18445;SDS011;9352;50.888;4.466;2022-11-20T13:26:33;7.78;;;4.13;;
18445;SDS011;9352;50.888;4.466;2022-11-20T13:29:02;10.60;;;4.30;;
18445;SDS011;9352;50.888;4.466;2022-11-20T13:31:35;16.50;;;4.40;;
18445;SDS011;9352;50.888;4.466;2022-11-20T13:34:05;13.23;;;4.82;;
18445;SDS011;9352;50.888;4.466;2022-11-20T13:36:33;10.23;;;4.43;;
18445;SDS011;9352;50.888;4.466;2022-11-20T13:39:01;7.88;;;3.88;;
18445;SDS011;9352;50.888;4.466;2022-11-20T13:41:31;8.25;;;4.35;;
18445;SDS011;9352;50.888;4.466;2022-11-20T13:44:06;11.70;;;4.28;;
18445;SDS011;9352;50.888;4.466;2022-11-20T13:46:39;6.82;;;3.92;;
18445;SDS011;9352;50.888;4.466;2022-11-20T13:49:09;7.25;;;3.80;;
18445;SDS011;9352;50.888;4.466;2022-11-20T13:51:42;9.77;;;4.38;;
18445;SDS011;9352;50.888;4.466;2022-11-20T13:54:32;10.20;;;3.60;;
18445;SDS011;9352;50.888;4.466;2022-11-20T13:57:34;6.60;;;3.30;;
18445;SDS011;9352;50.888;4.466;2022-11-20T14:00:20;4.75;;;3.60;;
18445;SDS011;9352;50.888;4.466;2022-11-20T14:02:51;4.88;;;3.10;;
18445;SDS011;9352;50.888;4.466;2022-11-20T14:05:27;8.63;;;4.57;;
18445;SDS011;9352;50.888;4.466;2022-11-20T14:07:57;9.20;;;3.90;;
18445;SDS011;9352;50.888;4.466;2022-11-20T14:10:25;4.20;;;2.70;;
18445;SDS011;9352;50.888;4.466;2022-11-20T14:12:55;4.70;;;3.10;;
18445;SDS011;9352;50.888;4.466;2022-11-20T14:15:26;4.05;;;2.95;;
18445;SDS011;9352;50.888;4.466;2022-11-20T14:17:54;4.13;;;2.90;;
18445;SDS011;9352;50.888;4.466;2022-11-20T14:20:23;4.05;;;2.70;;
18445;SDS011;9352;50.888;4.466;2022-11-20T14:22:53;2.85;;;2.63;;
18445;SDS011;9352;50.888;4.466;2022-11-20T14:25:21;2.83;;;2.55;;
18445;SDS011;9352;50.888;4.466;2022-11-20T14:27:52;6.88;;;3.00;;
18445;SDS011;9352;50.888;4.466;2022-11-20T14:30:22;4.40;;;2.80;;
18445;SDS011;9352;50.888;4.466;2022-11-20T14:32:51;4.38;;;2.80;;
18445;SDS011;9352;50.888;4.466;2022-11-20T14:35:23;2.88;;;2.47;;
18445;SDS011;9352;50.888;4.466;2022-11-20T14:37:52;5.95;;;2.78;;
18445;SDS011;9352;50.888;4.466;2022-11-20T14:40:24;3.08;;;2.75;;
18445;SDS011;9352;50.888;4.466;2022-11-20T14:42:53;3.15;;;2.75;;
18445;SDS011;9352;50.888;4.466;2022-11-20T14:45:22;6.63;;;3.45;;
18445;SDS011;9352;50.888;4.466;2022-11-20T14:47:50;4.82;;;2.83;;
18445;SDS011;9352;50.888;4.466;2022-11-20T14:50:19;3.80;;;3.03;;
18445;SDS011;9352;50.888;4.466;2022-11-20T14:52:51;3.63;;;2.63;;
18445;SDS011;9352;50.888;4.466;2022-11-20T14:55:27;3.22;;;2.92;;
18445;SDS011;9352;50.888;4.466;2022-11-20T14:57:56;3.95;;;3.15;;